sensor_id;sensor_type;location;lat;lon;timestamp;P1;P2;P0
24012;PMS7003;12220;50.194;18.948;2023-04-03T00:01:48;16;12;10
24012;PMS7003;12220;50.194;18.948;2023-04-03T00:03:56;13;13;10
24012;PMS7003;12220;50.194;18.948;2023-04-03T00:05:57;11;10;7
24012;PMS7003;12220;50.194;18.948;2023-04-03T00:07:59;13;12;10
24012;PMS7003;12220;50.194;18.948;2023-04-03T00:10:02;15;12;9
24012;PMS7003;12220;50.194;18.948;2023-04-03T00:12:11;17;14;11
24012;PMS7003;12220;50.194;18.948;2023-04-03T00:14:12;13;13;10
24012;PMS7003;12220;50.194;18.948;2023-04-03T00:16:14;11;8;5
24012;PMS7003;12220;50.194;18.948;2023-04-03T00:18:16;8;8;6
24012;PMS7003;12220;50.194;18.948;2023-04-03T00:20:26;14;10;8
24012;PMS7003;12220;50.194;18.948;2023-04-03T00:22:28;11;9;6
24012;PMS7003;12220;50.194;18.948;2023-04-03T00:24:29;13;10;7
24012;PMS7003;12220;50.194;18.948;2023-04-03T00:26:31;12;12;10
24012;PMS7003;12220;50.194;18.948;2023-04-03T00:28:41;8;8;6
24012;PMS7003;12220;50.194;18.948;2023-04-03T00:30:43;10;10;7
24012;PMS7003;12220;50.194;18.948;2023-04-03T00:32:44;13;11;9
24012;PMS7003;12220;50.194;18.948;2023-04-03T00:34:48;12;11;8
24012;PMS7003;12220;50.194;18.948;2023-04-03T00:36:56;10;10;9
24012;PMS7003;12220;50.194;18.948;2023-04-03T00:38:58;14;10;8
24012;PMS7003;12220;50.194;18.948;2023-04-03T00:41:00;11;10;8
24012;PMS7003;12220;50.194;18.948;2023-04-03T00:43:02;11;11;9
24012;PMS7003;12220;50.194;18.948;2023-04-03T00:47:33;14;14;11
24012;PMS7003;12220;50.194;18.948;2023-04-03T00:49:35;19;13;11
24012;PMS7003;12220;50.194;18.948;2023-04-03T00:51:39;11;11;8
24012;PMS7003;12220;50.194;18.948;2023-04-03T00:53:47;12;12;10
24012;PMS7003;12220;50.194;18.948;2023-04-03T00:55:56;15;14;9
24012;PMS7003;12220;50.194;18.948;2023-04-03T00:58:09;16;16;12
24012;PMS7003;12220;50.194;18.948;2023-04-03T01:00:14;17;13;10
24012;PMS7003;12220;50.194;18.948;2023-04-03T01:02:19;15;11;9
24012;PMS7003;12220;50.194;18.948;2023-04-03T01:06:34;18;17;11
24012;PMS7003;12220;50.194;18.948;2023-04-03T01:08:47;9;6;6
24012;PMS7003;12220;50.194;18.948;2023-04-03T01:10:50;14;13;10
24012;PMS7003;12220;50.194;18.948;2023-04-03T01:12:52;13;13;10
24012;PMS7003;12220;50.194;18.948;2023-04-03T01:14:55;14;11;9
24012;PMS7003;12220;50.194;18.948;2023-04-03T01:17:01;15;12;10
24012;PMS7003;12220;50.194;18.948;2023-04-03T01:19:03;13;12;7
24012;PMS7003;12220;50.194;18.948;2023-04-03T01:21:59;15;15;11
24012;PMS7003;12220;50.194;18.948;2023-04-03T01:27:46;12;10;7
24012;PMS7003;12220;50.194;18.948;2023-04-03T01:29:47;15;15;10
24012;PMS7003;12220;50.194;18.948;2023-04-03T01:31:50;17;15;11
24012;PMS7003;12220;50.194;18.948;2023-04-03T01:33:56;22;19;11
24012;PMS7003;12220;50.194;18.948;2023-04-03T01:35:57;20;17;14
24012;PMS7003;12220;50.194;18.948;2023-04-03T01:37:59;18;16;12
24012;PMS7003;12220;50.194;18.948;2023-04-03T01:40:01;22;21;15
24012;PMS7003;12220;50.194;18.948;2023-04-03T01:42:03;23;20;13
24012;PMS7003;12220;50.194;18.948;2023-04-03T01:44:09;18;15;10
24012;PMS7003;12220;50.194;18.948;2023-04-03T01:46:10;11;11;8
24012;PMS7003;12220;50.194;18.948;2023-04-03T01:48:12;22;21;14
24012;PMS7003;12220;50.194;18.948;2023-04-03T01:50:14;19;17;11
24012;PMS7003;12220;50.194;18.948;2023-04-03T01:52:24;18;17;12
24012;PMS7003;12220;50.194;18.948;2023-04-03T01:54:26;18;16;11
24012;PMS7003;12220;50.194;18.948;2023-04-03T01:56:27;23;21;14
24012;PMS7003;12220;50.194;18.948;2023-04-03T01:58:29;20;16;10
24012;PMS7003;12220;50.194;18.948;2023-04-03T02:00:39;17;16;12
24012;PMS7003;12220;50.194;18.948;2023-04-03T02:02:41;16;15;11
24012;PMS7003;12220;50.194;18.948;2023-04-03T02:04:42;17;8;7
24012;PMS7003;12220;50.194;18.948;2023-04-03T02:06:44;16;16;12
24012;PMS7003;12220;50.194;18.948;2023-04-03T02:08:54;17;17;11
24012;PMS7003;12220;50.194;18.948;2023-04-03T02:10:56;16;15;11
24012;PMS7003;12220;50.194;18.948;2023-04-03T02:12:57;19;18;12
24012;PMS7003;12220;50.194;18.948;2023-04-03T02:14:59;15;13;8
24012;PMS7003;12220;50.194;18.948;2023-04-03T02:17:09;13;13;8
24012;PMS7003;12220;50.194;18.948;2023-04-03T02:19:11;20;18;11
24012;PMS7003;12220;50.194;18.948;2023-04-03T02:21:12;19;16;12
24012;PMS7003;12220;50.194;18.948;2023-04-03T02:23:14;20;18;12
24012;PMS7003;12220;50.194;18.948;2023-04-03T02:25:24;24;18;11
24012;PMS7003;12220;50.194;18.948;2023-04-03T02:27:26;18;17;11
24012;PMS7003;12220;50.194;18.948;2023-04-03T02:29:28;17;15;12
24012;PMS7003;12220;50.194;18.948;2023-04-03T02:31:29;13;12;9
24012;PMS7003;12220;50.194;18.948;2023-04-03T02:33:40;13;8;6
24012;PMS7003;12220;50.194;18.948;2023-04-03T02:35:41;12;11;8
24012;PMS7003;12220;50.194;18.948;2023-04-03T02:37:43;20;16;9
24012;PMS7003;12220;50.194;18.948;2023-04-03T02:39:44;11;10;7
24012;PMS7003;12220;50.194;18.948;2023-04-03T02:41:55;13;11;9
24012;PMS7003;12220;50.194;18.948;2023-04-03T02:43:56;11;11;8
24012;PMS7003;12220;50.194;18.948;2023-04-03T02:45:58;13;13;10
24012;PMS7003;12220;50.194;18.948;2023-04-03T02:47:59;10;10;7
24012;PMS7003;12220;50.194;18.948;2023-04-03T02:50:10;16;11;9
24012;PMS7003;12220;50.194;18.948;2023-04-03T02:52:12;18;18;13
24012;PMS7003;12220;50.194;18.948;2023-04-03T02:54:14;14;13;9
24012;PMS7003;12220;50.194;18.948;2023-04-03T02:56:16;11;11;8
24012;PMS7003;12220;50.194;18.948;2023-04-03T02:58:25;16;16;12
24012;PMS7003;12220;50.194;18.948;2023-04-03T03:00:26;13;13;10
24012;PMS7003;12220;50.194;18.948;2023-04-03T03:02:28;13;13;8
24012;PMS7003;12220;50.194;18.948;2023-04-03T03:04:30;15;13;10
24012;PMS7003;12220;50.194;18.948;2023-04-03T03:06:40;7;6;3
24012;PMS7003;12220;50.194;18.948;2023-04-03T03:08:42;19;13;11
24012;PMS7003;12220;50.194;18.948;2023-04-03T03:10:44;14;13;9
24012;PMS7003;12220;50.194;18.948;2023-04-03T03:12:46;16;16;12
24012;PMS7003;12220;50.194;18.948;2023-04-03T03:14:55;12;12;11
24012;PMS7003;12220;50.194;18.948;2023-04-03T03:16:57;17;16;12
24012;PMS7003;12220;50.194;18.948;2023-04-03T03:18:58;19;13;9
24012;PMS7003;12220;50.194;18.948;2023-04-03T03:21:00;15;14;10
24012;PMS7003;12220;50.194;18.948;2023-04-03T03:23:10;16;15;11
24012;PMS7003;12220;50.194;18.948;2023-04-03T03:25:12;8;8;7
24012;PMS7003;12220;50.194;18.948;2023-04-03T03:27:13;9;9;8
24012;PMS7003;12220;50.194;18.948;2023-04-03T03:29:16;13;12;11
24012;PMS7003;12220;50.194;18.948;2023-04-03T03:31:25;13;11;10
24012;PMS7003;12220;50.194;18.948;2023-04-03T03:33:30;16;15;10
24012;PMS7003;12220;50.194;18.948;2023-04-03T03:35:32;13;12;8
24012;PMS7003;12220;50.194;18.948;2023-04-03T03:37:37;15;13;8
24012;PMS7003;12220;50.194;18.948;2023-04-03T03:39:40;14;13;9
24012;PMS7003;12220;50.194;18.948;2023-04-03T03:41:42;15;13;10
24012;PMS7003;12220;50.194;18.948;2023-04-03T03:43:43;18;16;10
24012;PMS7003;12220;50.194;18.948;2023-04-03T03:45:54;16;15;12
24012;PMS7003;12220;50.194;18.948;2023-04-03T03:47:56;13;13;10
24012;PMS7003;12220;50.194;18.948;2023-04-03T03:49:57;15;11;9
24012;PMS7003;12220;50.194;18.948;2023-04-03T03:51:59;11;11;8
24012;PMS7003;12220;50.194;18.948;2023-04-03T03:54:00;14;14;11
24012;PMS7003;12220;50.194;18.948;2023-04-03T03:56:11;10;10;7
24012;PMS7003;12220;50.194;18.948;2023-04-03T03:58:13;7;7;5
24012;PMS7003;12220;50.194;18.948;2023-04-03T04:00:15;12;11;9
24012;PMS7003;12220;50.194;18.948;2023-04-03T04:02:17;8;8;5
24012;PMS7003;12220;50.194;18.948;2023-04-03T04:04:26;6;6;5
24012;PMS7003;12220;50.194;18.948;2023-04-03T04:06:27;11;6;5
24012;PMS7003;12220;50.194;18.948;2023-04-03T04:08:29;10;9;8
24012;PMS7003;12220;50.194;18.948;2023-04-03T04:10:30;12;11;8
24012;PMS7003;12220;50.194;18.948;2023-04-03T04:12:41;12;11;6
24012;PMS7003;12220;50.194;18.948;2023-04-03T04:14:42;9;7;4
24012;PMS7003;12220;50.194;18.948;2023-04-03T04:16:47;6;6;4
24012;PMS7003;12220;50.194;18.948;2023-04-03T04:18:52;8;7;6
24012;PMS7003;12220;50.194;18.948;2023-04-03T04:20:56;16;16;10
24012;PMS7003;12220;50.194;18.948;2023-04-03T04:22:58;8;7;6
24012;PMS7003;12220;50.194;18.948;2023-04-03T04:27:19;6;6;4
24012;PMS7003;12220;50.194;18.948;2023-04-03T04:29:21;13;10;7
24012;PMS7003;12220;50.194;18.948;2023-04-03T04:31:33;9;9;6
24012;PMS7003;12220;50.194;18.948;2023-04-03T04:33:34;9;8;7
24012;PMS7003;12220;50.194;18.948;2023-04-03T04:35:36;11;10;8
24012;PMS7003;12220;50.194;18.948;2023-04-03T04:37:37;9;8;6
24012;PMS7003;12220;50.194;18.948;2023-04-03T04:39:48;15;9;8
24012;PMS7003;12220;50.194;18.948;2023-04-03T04:41:49;8;6;5
24012;PMS7003;12220;50.194;18.948;2023-04-03T04:43:52;8;8;6
24012;PMS7003;12220;50.194;18.948;2023-04-03T04:48:07;6;5;4
24012;PMS7003;12220;50.194;18.948;2023-04-03T04:50:08;9;8;7
24012;PMS7003;12220;50.194;18.948;2023-04-03T04:52:13;7;6;5
24012;PMS7003;12220;50.194;18.948;2023-04-03T04:54:15;11;10;8
24012;PMS7003;12220;50.194;18.948;2023-04-03T04:56:18;7;7;5
24012;PMS7003;12220;50.194;18.948;2023-04-03T04:58:21;10;8;7
24012;PMS7003;12220;50.194;18.948;2023-04-03T05:00:22;5;5;4
24012;PMS7003;12220;50.194;18.948;2023-04-03T05:02:24;8;5;3
24012;PMS7003;12220;50.194;18.948;2023-04-03T05:04:33;8;5;5
24012;PMS7003;12220;50.194;18.948;2023-04-03T05:06:35;8;8;5
24012;PMS7003;12220;50.194;18.948;2023-04-03T05:08:38;11;7;3
24012;PMS7003;12220;50.194;18.948;2023-04-03T05:10:39;8;6;4
24012;PMS7003;12220;50.194;18.948;2023-04-03T05:12:49;9;7;6
24012;PMS7003;12220;50.194;18.948;2023-04-03T05:14:50;9;8;7
24012;PMS7003;12220;50.194;18.948;2023-04-03T05:16:52;9;7;6
24012;PMS7003;12220;50.194;18.948;2023-04-03T05:18:54;12;10;8
24012;PMS7003;12220;50.194;18.948;2023-04-03T05:21:04;6;6;5
24012;PMS7003;12220;50.194;18.948;2023-04-03T05:23:05;10;7;5
24012;PMS7003;12220;50.194;18.948;2023-04-03T05:25:07;8;7;6
24012;PMS7003;12220;50.194;18.948;2023-04-03T05:27:09;9;6;5
24012;PMS7003;12220;50.194;18.948;2023-04-03T05:29:19;11;10;7
24012;PMS7003;12220;50.194;18.948;2023-04-03T05:31:21;10;10;6
24012;PMS7003;12220;50.194;18.948;2023-04-03T05:33:23;11;11;7
24012;PMS7003;12220;50.194;18.948;2023-04-03T05:35:26;10;8;7
24012;PMS7003;12220;50.194;18.948;2023-04-03T05:37:34;7;6;5
24012;PMS7003;12220;50.194;18.948;2023-04-03T05:39:36;11;11;9
24012;PMS7003;12220;50.194;18.948;2023-04-03T05:41:41;7;7;6
24012;PMS7003;12220;50.194;18.948;2023-04-03T05:43:42;5;5;3
24012;PMS7003;12220;50.194;18.948;2023-04-03T05:45:50;11;9;7
24012;PMS7003;12220;50.194;18.948;2023-04-03T05:47:52;6;6;5
24012;PMS7003;12220;50.194;18.948;2023-04-03T05:49:54;10;9;6
24012;PMS7003;12220;50.194;18.948;2023-04-03T05:51:55;10;10;8
24012;PMS7003;12220;50.194;18.948;2023-04-03T05:56:26;7;7;7
24012;PMS7003;12220;50.194;18.948;2023-04-03T05:58:27;8;8;6
24012;PMS7003;12220;50.194;18.948;2023-04-03T06:00:29;9;8;5
24012;PMS7003;12220;50.194;18.948;2023-04-03T06:02:31;1;0;0
24012;PMS7003;12220;50.194;18.948;2023-04-03T06:04:41;10;6;5
24012;PMS7003;12220;50.194;18.948;2023-04-03T06:06:52;8;8;7
24012;PMS7003;12220;50.194;18.948;2023-04-03T06:08:53;6;5;4
24012;PMS7003;12220;50.194;18.948;2023-04-03T06:10:55;9;5;4
24012;PMS7003;12220;50.194;18.948;2023-04-03T06:12:58;12;9;6
24012;PMS7003;12220;50.194;18.948;2023-04-03T06:14:59;11;10;8
24012;PMS7003;12220;50.194;18.948;2023-04-03T06:17:02;8;7;6
24012;PMS7003;12220;50.194;18.948;2023-04-03T06:19:05;7;5;4
24012;PMS7003;12220;50.194;18.948;2023-04-03T06:21:13;8;8;7
24012;PMS7003;12220;50.194;18.948;2023-04-03T06:23:15;8;5;4
24012;PMS7003;12220;50.194;18.948;2023-04-03T06:25:17;5;5;4
24012;PMS7003;12220;50.194;18.948;2023-04-03T06:27:19;6;6;5
24012;PMS7003;12220;50.194;18.948;2023-04-03T06:29:28;8;8;7
24012;PMS7003;12220;50.194;18.948;2023-04-03T06:31:30;10;8;7
24012;PMS7003;12220;50.194;18.948;2023-04-03T06:33:31;7;6;5
24012;PMS7003;12220;50.194;18.948;2023-04-03T06:35:33;8;6;5
24012;PMS7003;12220;50.194;18.948;2023-04-03T06:37:43;5;5;4
24012;PMS7003;12220;50.194;18.948;2023-04-03T06:39:45;7;7;5
24012;PMS7003;12220;50.194;18.948;2023-04-03T06:41:47;9;7;5
24012;PMS7003;12220;50.194;18.948;2023-04-03T06:43:48;8;8;6
24012;PMS7003;12220;50.194;18.948;2023-04-03T06:45:58;6;6;5
24012;PMS7003;12220;50.194;18.948;2023-04-03T06:48:00;4;4;3
24012;PMS7003;12220;50.194;18.948;2023-04-03T06:50:02;11;9;7
24012;PMS7003;12220;50.194;18.948;2023-04-03T06:52:04;10;7;6
24012;PMS7003;12220;50.194;18.948;2023-04-03T06:54:14;7;7;5
24012;PMS7003;12220;50.194;18.948;2023-04-03T06:56:15;4;4;4
24012;PMS7003;12220;50.194;18.948;2023-04-03T06:58:17;10;7;4
24012;PMS7003;12220;50.194;18.948;2023-04-03T07:00:20;8;8;6
24012;PMS7003;12220;50.194;18.948;2023-04-03T07:02:29;11;10;7
24012;PMS7003;12220;50.194;18.948;2023-04-03T07:04:30;8;8;7
24012;PMS7003;12220;50.194;18.948;2023-04-03T07:06:32;10;7;5
24012;PMS7003;12220;50.194;18.948;2023-04-03T07:08:34;13;6;6
24012;PMS7003;12220;50.194;18.948;2023-04-03T07:10:44;6;6;5
24012;PMS7003;12220;50.194;18.948;2023-04-03T07:12:46;6;4;4
24012;PMS7003;12220;50.194;18.948;2023-04-03T07:14:48;7;6;5
24012;PMS7003;12220;50.194;18.948;2023-04-03T07:16:57;12;9;5
24012;PMS7003;12220;50.194;18.948;2023-04-03T07:18:59;5;5;3
24012;PMS7003;12220;50.194;18.948;2023-04-03T07:21:05;9;8;6
24012;PMS7003;12220;50.194;18.948;2023-04-03T07:23:07;4;4;3
24012;PMS7003;12220;50.194;18.948;2023-04-03T07:25:08;5;5;4
24012;PMS7003;12220;50.194;18.948;2023-04-03T07:27:14;8;7;5
24012;PMS7003;12220;50.194;18.948;2023-04-03T07:29:16;10;8;7
24012;PMS7003;12220;50.194;18.948;2023-04-03T07:31:17;5;5;4
24012;PMS7003;12220;50.194;18.948;2023-04-03T07:33:20;13;8;5
24012;PMS7003;12220;50.194;18.948;2023-04-03T07:35:29;12;6;5
24012;PMS7003;12220;50.194;18.948;2023-04-03T07:37:31;13;9;7
24012;PMS7003;12220;50.194;18.948;2023-04-03T07:39:33;9;8;6
24012;PMS7003;12220;50.194;18.948;2023-04-03T07:41:34;5;5;4
24012;PMS7003;12220;50.194;18.948;2023-04-03T07:43:44;6;4;3
24012;PMS7003;12220;50.194;18.948;2023-04-03T07:45:50;7;7;5
24012;PMS7003;12220;50.194;18.948;2023-04-03T07:47:52;5;5;4
24012;PMS7003;12220;50.194;18.948;2023-04-03T07:49:53;6;6;5
24012;PMS7003;12220;50.194;18.948;2023-04-03T07:51:59;11;5;4
24012;PMS7003;12220;50.194;18.948;2023-04-03T07:54:01;8;6;5
24012;PMS7003;12220;50.194;18.948;2023-04-03T07:56:04;5;5;3
24012;PMS7003;12220;50.194;18.948;2023-04-03T07:58:06;7;7;6
24012;PMS7003;12220;50.194;18.948;2023-04-03T08:00:15;2;2;1
24012;PMS7003;12220;50.194;18.948;2023-04-03T08:02:18;7;7;5
24012;PMS7003;12220;50.194;18.948;2023-04-03T08:04:20;9;7;5
24012;PMS7003;12220;50.194;18.948;2023-04-03T08:06:21;9;4;3
24012;PMS7003;12220;50.194;18.948;2023-04-03T08:08:30;4;3;3
24012;PMS7003;12220;50.194;18.948;2023-04-03T08:10:33;5;4;3
24012;PMS7003;12220;50.194;18.948;2023-04-03T08:12:35;7;5;4
24012;PMS7003;12220;50.194;18.948;2023-04-03T08:14:37;7;5;3
24012;PMS7003;12220;50.194;18.948;2023-04-03T08:16:45;4;4;3
24012;PMS7003;12220;50.194;18.948;2023-04-03T08:18:48;5;4;3
24012;PMS7003;12220;50.194;18.948;2023-04-03T08:20:51;4;4;3
24012;PMS7003;12220;50.194;18.948;2023-04-03T08:22:52;4;4;2
24012;PMS7003;12220;50.194;18.948;2023-04-03T08:25:00;3;3;2
24012;PMS7003;12220;50.194;18.948;2023-04-03T08:27:02;4;4;3
24012;PMS7003;12220;50.194;18.948;2023-04-03T08:29:03;4;3;3
24012;PMS7003;12220;50.194;18.948;2023-04-03T08:31:06;2;1;1
24012;PMS7003;12220;50.194;18.948;2023-04-03T08:33:15;6;4;3
24012;PMS7003;12220;50.194;18.948;2023-04-03T08:35:16;5;5;3
24012;PMS7003;12220;50.194;18.948;2023-04-03T08:37:18;5;2;2
24012;PMS7003;12220;50.194;18.948;2023-04-03T08:39:20;2;2;2
24012;PMS7003;12220;50.194;18.948;2023-04-03T08:46:13;2;2;2
24012;PMS7003;12220;50.194;18.948;2023-04-03T08:52:42;2;2;1
24012;PMS7003;12220;50.194;18.948;2023-04-03T08:54:52;4;2;1
24012;PMS7003;12220;50.194;18.948;2023-04-03T08:56:56;2;1;1
24012;PMS7003;12220;50.194;18.948;2023-04-03T08:59:04;2;2;1
24012;PMS7003;12220;50.194;18.948;2023-04-03T09:01:20;5;2;2
24012;PMS7003;12220;50.194;18.948;2023-04-03T09:03:23;2;2;2
24012;PMS7003;12220;50.194;18.948;2023-04-03T09:05:30;3;2;1
24012;PMS7003;12220;50.194;18.948;2023-04-03T09:07:42;3;2;2
24012;PMS7003;12220;50.194;18.948;2023-04-03T09:09:59;3;3;2
24012;PMS7003;12220;50.194;18.948;2023-04-03T09:14:23;1;1;1
24012;PMS7003;12220;50.194;18.948;2023-04-03T09:16:35;2;2;1
24012;PMS7003;12220;50.194;18.948;2023-04-03T09:18:44;1;1;1
24012;PMS7003;12220;50.194;18.948;2023-04-03T09:25:33;2;2;1
24012;PMS7003;12220;50.194;18.948;2023-04-03T09:27:48;4;2;1
24012;PMS7003;12220;50.194;18.948;2023-04-03T09:29:50;1;1;0
24012;PMS7003;12220;50.194;18.948;2023-04-03T09:31:56;1;1;1
24012;PMS7003;12220;50.194;18.948;2023-04-03T09:34:05;2;2;2
24012;PMS7003;12220;50.194;18.948;2023-04-03T09:36:11;1;1;1
24012;PMS7003;12220;50.194;18.948;2023-04-03T09:38:17;2;2;1
24012;PMS7003;12220;50.194;18.948;2023-04-03T09:42:40;5;1;1
24012;PMS7003;12220;50.194;18.948;2023-04-03T09:44:44;2;2;1
24012;PMS7003;12220;50.194;18.948;2023-04-03T09:46:55;1;1;1
24012;PMS7003;12220;50.194;18.948;2023-04-03T09:48:58;1;1;1
24012;PMS7003;12220;50.194;18.948;2023-04-03T09:51:01;1;0;0
24012;PMS7003;12220;50.194;18.948;2023-04-03T09:53:11;2;1;1
24012;PMS7003;12220;50.194;18.948;2023-04-03T09:55:22;0;0;0
24012;PMS7003;12220;50.194;18.948;2023-04-03T09:57:32;3;1;1
24012;PMS7003;12220;50.194;18.948;2023-04-03T09:59:34;3;2;1
24012;PMS7003;12220;50.194;18.948;2023-04-03T10:01:37;2;2;1
24012;PMS7003;12220;50.194;18.948;2023-04-03T10:03:40;1;1;1
24012;PMS7003;12220;50.194;18.948;2023-04-03T10:05:47;2;2;2
24012;PMS7003;12220;50.194;18.948;2023-04-03T10:10:25;2;2;1
24012;PMS7003;12220;50.194;18.948;2023-04-03T10:12:27;4;3;2
24012;PMS7003;12220;50.194;18.948;2023-04-03T10:14:29;0;0;0
24012;PMS7003;12220;50.194;18.948;2023-04-03T10:18:46;1;1;1
24012;PMS7003;12220;50.194;18.948;2023-04-03T10:21:03;0;0;0
24012;PMS7003;12220;50.194;18.948;2023-04-03T10:26:09;1;1;1
24012;PMS7003;12220;50.194;18.948;2023-04-03T10:27:46;4;3;2
24012;PMS7003;12220;50.194;18.948;2023-04-03T10:29:56;1;1;1
24012;PMS7003;12220;50.194;18.948;2023-04-03T10:34:21;1;1;1
24012;PMS7003;12220;50.194;18.948;2023-04-03T10:36:38;1;1;1
24012;PMS7003;12220;50.194;18.948;2023-04-03T10:43:42;1;1;1
24012;PMS7003;12220;50.194;18.948;2023-04-03T10:46:43;1;1;1
24012;PMS7003;12220;50.194;18.948;2023-04-03T10:48:27;5;4;3
24012;PMS7003;12220;50.194;18.948;2023-04-03T10:53:06;3;3;2
24012;PMS7003;12220;50.194;18.948;2023-04-03T10:57:46;2;2;1
24012;PMS7003;12220;50.194;18.948;2023-04-03T10:59:59;2;2;1
24012;PMS7003;12220;50.194;18.948;2023-04-03T11:04:16;3;3;2
24012;PMS7003;12220;50.194;18.948;2023-04-03T11:06:22;3;2;2
24012;PMS7003;12220;50.194;18.948;2023-04-03T11:10:50;0;0;0
24012;PMS7003;12220;50.194;18.948;2023-04-03T11:15:11;4;4;3
24012;PMS7003;12220;50.194;18.948;2023-04-03T11:17:25;2;2;2
24012;PMS7003;12220;50.194;18.948;2023-04-03T11:21:51;1;1;1
24012;PMS7003;12220;50.194;18.948;2023-04-03T11:23:56;4;4;3
24012;PMS7003;12220;50.194;18.948;2023-04-03T11:28:12;64;52;30
24012;PMS7003;12220;50.194;18.948;2023-04-03T11:30:24;36;23;14
24012;PMS7003;12220;50.194;18.948;2023-04-03T11:32:32;6;6;3
24012;PMS7003;12220;50.194;18.948;2023-04-03T11:36:59;5;5;4
24012;PMS7003;12220;50.194;18.948;2023-04-03T11:41:24;5;3;1
24012;PMS7003;12220;50.194;18.948;2023-04-03T11:43:32;1;1;1
24012;PMS7003;12220;50.194;18.948;2023-04-03T11:47:56;25;22;16
24012;PMS7003;12220;50.194;18.948;2023-04-03T11:50:07;8;8;6
24012;PMS7003;12220;50.194;18.948;2023-04-03T11:54:49;5;5;3
24012;PMS7003;12220;50.194;18.948;2023-04-03T11:56:51;3;3;2
24012;PMS7003;12220;50.194;18.948;2023-04-03T12:01:06;5;2;2
24012;PMS7003;12220;50.194;18.948;2023-04-03T12:05:27;1;1;1
24012;PMS7003;12220;50.194;18.948;2023-04-03T12:07:31;3;3;2
24012;PMS7003;12220;50.194;18.948;2023-04-03T12:09:34;3;3;2
24012;PMS7003;12220;50.194;18.948;2023-04-03T12:11:42;1;1;1
24012;PMS7003;12220;50.194;18.948;2023-04-03T12:16:03;1;1;1
24012;PMS7003;12220;50.194;18.948;2023-04-03T12:22:35;3;3;3
24012;PMS7003;12220;50.194;18.948;2023-04-03T12:24:37;6;3;2
24012;PMS7003;12220;50.194;18.948;2023-04-03T12:31:36;5;5;3
24012;PMS7003;12220;50.194;18.948;2023-04-03T12:40:58;3;3;2
24012;PMS7003;12220;50.194;18.948;2023-04-03T12:46:26;2;2;1
24012;PMS7003;12220;50.194;18.948;2023-04-03T12:48:01;5;3;3
24012;PMS7003;12220;50.194;18.948;2023-04-03T12:50:16;4;4;3
24012;PMS7003;12220;50.194;18.948;2023-04-03T12:54:35;8;5;5
24012;PMS7003;12220;50.194;18.948;2023-04-03T12:56:40;4;3;2
24012;PMS7003;12220;50.194;18.948;2023-04-03T12:58:48;2;2;2
24012;PMS7003;12220;50.194;18.948;2023-04-03T13:03:01;4;3;3
24012;PMS7003;12220;50.194;18.948;2023-04-03T13:05:06;3;3;2
24012;PMS7003;12220;50.194;18.948;2023-04-03T13:09:28;9;6;5
24012;PMS7003;12220;50.194;18.948;2023-04-03T13:11:34;6;6;5
24012;PMS7003;12220;50.194;18.948;2023-04-03T13:13:39;10;10;8
24012;PMS7003;12220;50.194;18.948;2023-04-03T13:15:45;5;5;5
24012;PMS7003;12220;50.194;18.948;2023-04-03T13:17:50;5;2;2
24012;PMS7003;12220;50.194;18.948;2023-04-03T13:19:54;2;2;2
24012;PMS7003;12220;50.194;18.948;2023-04-03T13:22:03;6;6;4
24012;PMS7003;12220;50.194;18.948;2023-04-03T13:24:11;5;3;3
24012;PMS7003;12220;50.194;18.948;2023-04-03T13:26:15;5;4;3
24012;PMS7003;12220;50.194;18.948;2023-04-03T13:28:23;3;3;2
24012;PMS7003;12220;50.194;18.948;2023-04-03T13:30:34;12;9;8
24012;PMS7003;12220;50.194;18.948;2023-04-03T13:32:41;4;4;3
24012;PMS7003;12220;50.194;18.948;2023-04-03T13:34:45;1;1;0
24012;PMS7003;12220;50.194;18.948;2023-04-03T13:41:34;8;7;6
24012;PMS7003;12220;50.194;18.948;2023-04-03T13:43:37;5;5;4
24012;PMS7003;12220;50.194;18.948;2023-04-03T13:45:39;4;4;4
24012;PMS7003;12220;50.194;18.948;2023-04-03T13:47:42;9;7;6
24012;PMS7003;12220;50.194;18.948;2023-04-03T13:49:58;3;3;3
24012;PMS7003;12220;50.194;18.948;2023-04-03T13:54:33;8;7;7
24012;PMS7003;12220;50.194;18.948;2023-04-03T13:56:58;2;2;2
24012;PMS7003;12220;50.194;18.948;2023-04-03T13:59:02;3;2;1
24012;PMS7003;12220;50.194;18.948;2023-04-03T14:01:11;6;6;5
24012;PMS7003;12220;50.194;18.948;2023-04-03T14:05:33;4;4;4
24012;PMS7003;12220;50.194;18.948;2023-04-03T14:07:36;6;4;3
24012;PMS7003;12220;50.194;18.948;2023-04-03T14:09:38;2;2;2
24012;PMS7003;12220;50.194;18.948;2023-04-03T14:11:40;4;4;4
24012;PMS7003;12220;50.194;18.948;2023-04-03T14:13:43;7;7;6
24012;PMS7003;12220;50.194;18.948;2023-04-03T14:15:51;5;5;4
24012;PMS7003;12220;50.194;18.948;2023-04-03T14:17:52;8;7;6
24012;PMS7003;12220;50.194;18.948;2023-04-03T14:19:57;3;3;2
24012;PMS7003;12220;50.194;18.948;2023-04-03T14:22:07;2;2;2
24012;PMS7003;12220;50.194;18.948;2023-04-03T14:24:12;3;2;2
24012;PMS7003;12220;50.194;18.948;2023-04-03T14:26:15;3;3;3
24012;PMS7003;12220;50.194;18.948;2023-04-03T14:28:20;1;1;1
24012;PMS7003;12220;50.194;18.948;2023-04-03T14:30:27;3;3;2
24012;PMS7003;12220;50.194;18.948;2023-04-03T14:32:31;2;2;2
24012;PMS7003;12220;50.194;18.948;2023-04-03T14:34:33;3;3;3
24012;PMS7003;12220;50.194;18.948;2023-04-03T14:36:34;3;2;2
24012;PMS7003;12220;50.194;18.948;2023-04-03T14:38:36;4;4;2
24012;PMS7003;12220;50.194;18.948;2023-04-03T14:40:39;3;3;2
24012;PMS7003;12220;50.194;18.948;2023-04-03T14:42:44;3;3;2
24012;PMS7003;12220;50.194;18.948;2023-04-03T14:44:47;2;2;1
24012;PMS7003;12220;50.194;18.948;2023-04-03T14:46:50;3;3;2
24012;PMS7003;12220;50.194;18.948;2023-04-03T14:48:54;3;3;2
24012;PMS7003;12220;50.194;18.948;2023-04-03T14:50:56;3;3;3
24012;PMS7003;12220;50.194;18.948;2023-04-03T14:52:58;4;3;3
24012;PMS7003;12220;50.194;18.948;2023-04-03T14:55:00;5;3;2
24012;PMS7003;12220;50.194;18.948;2023-04-03T14:57:09;4;4;4
24012;PMS7003;12220;50.194;18.948;2023-04-03T14:59:14;5;5;4
24012;PMS7003;12220;50.194;18.948;2023-04-03T15:01:20;3;3;2
24012;PMS7003;12220;50.194;18.948;2023-04-03T15:03:21;5;5;4
24012;PMS7003;12220;50.194;18.948;2023-04-03T15:05:25;5;5;5
24012;PMS7003;12220;50.194;18.948;2023-04-03T15:07:27;7;5;4
24012;PMS7003;12220;50.194;18.948;2023-04-03T15:09:30;7;3;3
24012;PMS7003;12220;50.194;18.948;2023-04-03T15:11:32;2;2;2
24012;PMS7003;12220;50.194;18.948;2023-04-03T15:13:40;4;3;3
24012;PMS7003;12220;50.194;18.948;2023-04-03T15:15:42;4;4;4
24012;PMS7003;12220;50.194;18.948;2023-04-03T15:17:44;3;3;2
24012;PMS7003;12220;50.194;18.948;2023-04-03T15:19:46;3;3;3
24012;PMS7003;12220;50.194;18.948;2023-04-03T15:21:55;4;2;2
24012;PMS7003;12220;50.194;18.948;2023-04-03T15:23:56;3;3;3
24012;PMS7003;12220;50.194;18.948;2023-04-03T15:25:58;3;3;3
24012;PMS7003;12220;50.194;18.948;2023-04-03T15:28:00;5;3;3
24012;PMS7003;12220;50.194;18.948;2023-04-03T15:30:14;4;2;1
24012;PMS7003;12220;50.194;18.948;2023-04-03T15:32:17;4;3;3
24012;PMS7003;12220;50.194;18.948;2023-04-03T15:34:18;5;4;4